createdAt,value
2019-01-09T00:01:35.603Z,60.57
2019-01-09T00:04:16.501Z,62.10
2019-01-09T00:06:57.903Z,64.37
2019-01-09T00:09:39.320Z,62.93
2019-01-09T00:12:20.607Z,62.40
2019-01-09T00:15:00.236Z,62.00
2019-01-09T00:17:48.991Z,60.93
2019-01-09T00:20:29.761Z,61.30
2019-01-09T00:23:10.329Z,61.83
2019-01-09T00:25:49.803Z,63.77
2019-01-09T00:31:44.091Z,62.67
2019-01-09T00:34:25.168Z,62.67
2019-01-09T00:37:06.405Z,62.10
2019-01-09T00:39:47.995Z,60.57
2019-01-09T00:42:28.957Z,60.70
2019-01-09T00:45:10.387Z,62.83
2019-01-09T00:47:51.840Z,60.33
2019-01-09T00:50:33.519Z,60.27
2019-01-09T00:53:15.002Z,61.80
2019-01-09T00:55:56.204Z,60.60
2019-01-09T00:58:36.871Z,60.17
2019-01-09T01:01:18.384Z,59.53
2019-01-09T01:03:59.505Z,58.17
2019-01-09T01:06:40.172Z,61.57
2019-01-09T01:09:39.842Z,59.20
2019-01-09T01:12:47.526Z,60.90
2019-01-09T01:15:28.852Z,54.73
2019-01-09T01:18:09.968Z,59.90
2019-01-09T01:20:51.295Z,60.87
2019-01-09T01:23:32.654Z,60.43
2019-01-09T01:26:13.579Z,58.50
2019-01-09T01:28:54.929Z,63.37
2019-01-09T01:31:36.041Z,62.07
2019-01-09T01:34:17.641Z,58.13
2019-01-09T01:36:58.914Z,60.00
2019-01-09T01:39:40.455Z,61.67
2019-01-09T01:42:21.288Z,59.23
2019-01-09T01:45:02.225Z,58.40
2019-01-09T01:47:43.859Z,59.90
2019-01-09T01:53:28.900Z,58.87
2019-01-09T01:56:09.932Z,57.03
2019-01-09T01:58:51.257Z,57.73
2019-01-09T02:01:32.651Z,58.77
2019-01-09T02:04:13.949Z,60.93
2019-01-09T02:06:55.307Z,58.93
2019-01-09T02:09:36.323Z,55.60
2019-01-09T02:12:17.710Z,57.37
2019-01-09T02:14:58.309Z,54.40
2019-01-09T02:17:39.169Z,53.83
2019-01-09T02:20:19.823Z,55.20
2019-01-09T02:23:01.267Z,53.83
2019-01-09T02:25:42.722Z,50.47
2019-01-09T02:28:24.076Z,53.73
2019-01-09T02:31:05.437Z,56.13
2019-01-09T02:33:46.885Z,55.03
2019-01-09T02:36:28.223Z,57.70
2019-01-09T02:39:09.089Z,52.80
2019-01-09T02:41:50.064Z,53.67
2019-01-09T02:44:32.396Z,52.13
2019-01-09T02:47:13.453Z,53.23
2019-01-09T02:49:54.098Z,53.23
2019-01-09T02:52:33.901Z,53.77
2019-01-09T02:55:22.447Z,48.50
2019-01-09T02:58:03.885Z,44.90
2019-01-09T03:00:43.539Z,51.10
2019-01-09T03:03:25.161Z,51.57
2019-01-09T03:06:04.653Z,49.23
2019-01-09T03:08:46.108Z,49.57
2019-01-09T03:11:27.016Z,51.23
2019-01-09T03:14:08.241Z,47.87
2019-01-09T03:16:49.601Z,53.07
2019-01-09T03:19:30.252Z,52.23
2019-01-09T03:22:11.367Z,49.77
2019-01-09T03:24:51.374Z,47.23
2019-01-09T03:27:39.891Z,43.20
2019-01-09T03:30:20.857Z,45.93
2019-01-09T03:33:01.685Z,45.53
2019-01-09T03:35:42.811Z,42.47
2019-01-09T03:38:24.306Z,43.93
2019-01-09T03:41:05.354Z,40.03
2019-01-09T03:43:44.997Z,38.87
2019-01-09T03:46:25.638Z,40.07
2019-01-09T03:49:07.168Z,40.73
2019-01-09T03:51:48.429Z,37.50
2019-01-09T03:54:29.504Z,41.27
2019-01-09T03:57:10.417Z,42.37
2019-01-09T03:59:51.820Z,43.80
2019-01-09T04:02:33.264Z,42.57
2019-01-09T04:05:14.865Z,44.43
2019-01-09T04:07:54.717Z,40.30
2019-01-09T04:10:43.275Z,43.50
2019-01-09T04:13:24.500Z,40.70
2019-01-09T04:16:05.848Z,41.53
2019-01-09T04:18:46.568Z,40.43
2019-01-09T04:21:26.107Z,40.07
2019-01-09T04:24:06.732Z,42.03
2019-01-09T04:26:47.852Z,42.43
2019-01-09T04:29:29.390Z,45.17
2019-01-09T04:32:10.776Z,47.10
2019-01-09T04:34:51.494Z,46.33
2019-01-09T04:37:31.175Z,46.83
2019-01-09T04:40:10.733Z,46.27
2019-01-09T04:45:59.573Z,43.37
2019-01-09T04:48:40.648Z,47.23
2019-01-09T04:51:21.664Z,46.30
2019-01-09T04:54:03.048Z,46.63
2019-01-09T04:56:43.731Z,47.83
2019-01-09T04:59:24.420Z,49.27
2019-01-09T05:02:05.447Z,48.20
2019-01-09T05:04:49.284Z,46.00
2019-01-09T05:07:29.688Z,48.20
2019-01-09T05:10:11.034Z,44.93
2019-01-09T05:12:52.318Z,45.53
2019-01-09T05:15:33.793Z,46.63
2019-01-09T05:18:14.859Z,45.13
2019-01-09T05:20:56.171Z,46.87
2019-01-09T05:23:37.145Z,48.43
2019-01-09T05:26:18.317Z,48.13
2019-01-09T05:28:58.983Z,48.50
2019-01-09T05:31:39.059Z,47.77
2019-01-09T05:34:20.159Z,47.77
2019-01-09T05:36:59.691Z,48.13
2019-01-09T05:39:40.854Z,51.77
2019-01-09T05:42:22.673Z,49.47
2019-01-09T05:45:03.701Z,50.23
2019-01-09T05:47:43.252Z,49.90
2019-01-09T05:50:24.085Z,51.57
2019-01-09T05:53:05.595Z,51.30
2019-01-09T05:55:45.204Z,51.47
2019-01-09T06:01:33.786Z,54.27
2019-01-09T06:04:13.431Z,56.33
2019-01-09T06:06:54.751Z,52.73
2019-01-09T06:09:35.489Z,56.13
2019-01-09T06:12:15.021Z,55.77
2019-01-09T06:18:04.900Z,54.40
2019-01-09T06:20:45.589Z,58.00
2019-01-09T06:23:26.643Z,55.30
2019-01-09T06:26:07.924Z,54.93
2019-01-09T06:28:48.831Z,57.90
2019-01-09T06:31:28.397Z,54.97
2019-01-09T06:34:09.533Z,55.57
2019-01-09T06:36:50.700Z,57.13
2019-01-09T06:39:31.605Z,55.00
2019-01-09T06:42:12.928Z,52.53
2019-01-09T06:44:54.379Z,54.27
2019-01-09T06:47:35.685Z,55.37
2019-01-09T06:50:17.104Z,52.93
2019-01-09T06:56:05.344Z,47.47
2019-01-09T06:58:46.947Z,28.77
2019-01-09T07:01:28.236Z,59.77
2019-01-09T07:04:09.535Z,58.50
2019-01-09T07:06:49.063Z,53.80
2019-01-09T07:12:37.989Z,52.20
2019-01-09T07:15:19.549Z,50.90
2019-01-09T07:18:00.771Z,50.50
2019-01-09T07:20:41.952Z,49.20
2019-01-09T07:23:22.705Z,49.30
2019-01-09T07:26:02.351Z,52.10
2019-01-09T07:28:43.469Z,51.13
2019-01-09T07:31:24.516Z,58.10
2019-01-09T07:34:06.136Z,56.47
2019-01-09T07:36:47.539Z,57.90
2019-01-09T07:39:28.427Z,60.57
2019-01-09T07:42:09.151Z,59.83
2019-01-09T07:44:50.104Z,60.70
2019-01-09T07:47:31.347Z,65.63
2019-01-09T07:50:10.929Z,68.67
2019-01-09T07:52:52.247Z,75.17
2019-01-09T07:55:33.404Z,62.73
2019-01-09T07:58:14.721Z,76.60
2019-01-09T08:00:55.472Z,62.57
2019-01-09T08:03:36.984Z,81.43
2019-01-09T08:06:18.572Z,83.50
2019-01-09T08:08:59.807Z,83.93
2019-01-09T08:11:40.901Z,80.43
2019-01-09T08:14:20.820Z,76.37
2019-01-09T08:17:01.472Z,78.43
2019-01-09T08:19:42.457Z,80.03
2019-01-09T08:22:23.227Z,78.40
2019-01-09T08:25:04.674Z,79.97
2019-01-09T08:27:45.608Z,80.13
2019-01-09T08:30:26.877Z,78.47
2019-01-09T08:33:07.801Z,79.03
2019-01-09T08:35:47.415Z,77.57
2019-01-09T08:38:26.999Z,79.93
2019-01-09T08:44:17.628Z,76.57
2019-01-09T08:46:59.152Z,82.00
2019-01-09T08:49:40.499Z,79.10
2019-01-09T08:52:24.981Z,81.37
2019-01-09T08:55:06.397Z,98.37
2019-01-09T08:57:46.044Z,65.13
2019-01-09T09:00:27.237Z,73.03
2019-01-09T09:03:08.017Z,75.97
2019-01-09T09:05:49.085Z,77.67
2019-01-09T09:08:29.839Z,73.83
2019-01-09T09:11:11.300Z,75.60
2019-01-09T09:13:52.925Z,75.83
2019-01-09T09:16:36.670Z,75.77
2019-01-09T09:19:17.917Z,57.47
2019-01-09T09:21:58.025Z,72.80
2019-01-09T09:24:46.554Z,72.53
2019-01-09T09:27:27.629Z,68.57
2019-01-09T09:30:08.409Z,71.77
2019-01-09T09:32:49.514Z,75.17
2019-01-09T09:35:30.848Z,74.00
2019-01-09T09:38:20.210Z,74.93
2019-01-09T09:40:55.413Z,76.90
2019-01-09T09:43:35.035Z,72.27
2019-01-09T09:46:23.688Z,76.50
2019-01-09T09:49:04.933Z,73.07
2019-01-09T09:51:45.829Z,75.10
2019-01-09T09:54:25.446Z,74.33
2019-01-09T09:57:14.017Z,69.07
2019-01-09T09:59:54.946Z,45.17
2019-01-09T10:02:36.467Z,63.47
2019-01-09T10:05:17.821Z,66.60
2019-01-09T10:07:59.264Z,72.17
2019-01-09T10:10:40.721Z,75.73
2019-01-09T10:13:21.577Z,74.07
2019-01-09T10:16:02.270Z,74.43
2019-01-09T10:18:42.892Z,74.90
2019-01-09T10:21:24.472Z,75.07
2019-01-09T10:24:05.169Z,74.23
2019-01-09T10:26:46.668Z,77.53
2019-01-09T10:29:27.957Z,79.43
2019-01-09T10:32:09.124Z,78.83
2019-01-09T10:34:49.810Z,79.40
2019-01-09T10:37:31.364Z,83.97
2019-01-09T10:40:12.335Z,86.53
2019-01-09T10:42:53.771Z,89.03
2019-01-09T10:45:34.760Z,86.00
2019-01-09T10:48:17.106Z,87.30
2019-01-09T10:50:58.169Z,85.27
2019-01-09T10:56:44.774Z,87.50
2019-01-09T10:59:26.810Z,86.57
2019-01-09T11:02:07.532Z,80.97
2019-01-09T11:04:48.891Z,96.73
2019-01-09T11:07:29.121Z,90.90
2019-01-09T11:13:23.813Z,94.63
2019-01-09T11:16:04.836Z,89.40
2019-01-09T11:18:46.344Z,92.90
2019-01-09T11:21:27.128Z,88.67
2019-01-09T11:24:08.613Z,88.97
2019-01-09T11:26:50.100Z,91.10
2019-01-09T11:29:31.627Z,89.10
2019-01-09T11:32:12.355Z,88.53
2019-01-09T11:34:53.808Z,91.00
2019-01-09T11:37:35.226Z,87.57
2019-01-09T11:40:16.812Z,90.23
2019-01-09T11:42:57.520Z,87.17
2019-01-09T11:45:38.119Z,90.27
2019-01-09T11:48:17.639Z,88.03
2019-01-09T11:50:58.996Z,89.50
2019-01-09T11:53:40.281Z,93.17
2019-01-09T11:56:21.528Z,99.97
2019-01-09T11:59:02.816Z,88.57
2019-01-09T12:01:44.729Z,96.90
2019-01-09T12:04:25.908Z,106.60
2019-01-09T12:07:05.519Z,106.90
2019-01-09T12:09:46.252Z,104.30
2019-01-09T12:12:27.476Z,103.10
2019-01-09T12:15:09.084Z,98.43
2019-01-09T12:17:50.604Z,113.40
2019-01-09T12:20:31.283Z,96.27
2019-01-09T12:23:12.815Z,91.40
2019-01-09T12:25:54.235Z,88.07
2019-01-09T12:28:35.396Z,106.75
2019-01-09T12:31:16.106Z,98.60
2019-01-09T12:33:57.581Z,100.23
2019-01-09T12:36:38.711Z,98.30
2019-01-09T12:39:19.520Z,99.20
2019-01-09T12:42:01.031Z,96.77
2019-01-09T12:44:41.052Z,94.50
2019-01-09T12:50:35.309Z,92.27
2019-01-09T12:53:14.891Z,90.43
2019-01-09T12:55:54.573Z,91.13
2019-01-09T12:58:43.077Z,85.67
2019-01-09T13:01:23.921Z,89.00
2019-01-09T13:04:04.961Z,81.70
2019-01-09T13:06:45.732Z,91.13
2019-01-09T13:09:27.038Z,86.80
2019-01-09T13:12:08.671Z,79.40
2019-01-09T13:14:47.062Z,82.10
2019-01-09T13:17:27.802Z,74.53
2019-01-09T13:20:09.080Z,72.63
2019-01-09T13:22:49.925Z,71.57
2019-01-09T13:25:31.402Z,75.77
2019-01-09T13:28:12.121Z,77.83
2019-01-09T13:30:53.413Z,76.87
2019-01-09T13:33:35.337Z,76.50
2019-01-09T13:36:16.431Z,77.27
2019-01-09T13:38:57.112Z,78.53
2019-01-09T13:41:38.761Z,76.87
2019-01-09T13:44:18.368Z,79.50
2019-01-09T13:46:59.845Z,72.73
2019-01-09T13:49:41.319Z,70.80
2019-01-09T13:52:22.931Z,69.10
2019-01-09T13:55:04.441Z,69.53
2019-01-09T13:57:45.072Z,67.97
2019-01-09T14:00:25.807Z,51.63
2019-01-09T14:03:07.532Z,61.23
2019-01-09T15:02:27.897Z,62.77
2019-01-09T15:05:08.652Z,65.10
2019-01-09T15:07:48.580Z,66.20
2019-01-09T15:10:37.176Z,64.47
2019-01-09T15:13:18.104Z,67.87
2019-01-09T15:15:58.776Z,67.53
2019-01-09T15:18:40.374Z,68.60
2019-01-09T15:21:21.864Z,65.60
2019-01-09T15:24:08.415Z,71.43
2019-01-09T15:26:46.312Z,69.03
2019-01-09T15:29:27.387Z,64.83
2019-01-09T15:32:08.555Z,66.27
2019-01-09T15:34:49.800Z,64.70
2019-01-09T15:37:31.229Z,64.13
2019-01-09T15:40:12.431Z,66.67
2019-01-09T15:42:53.396Z,61.47
2019-01-09T15:45:34.601Z,63.50
2019-01-09T15:48:15.891Z,67.87
2019-01-09T15:50:56.775Z,68.07
2019-01-09T15:53:37.407Z,69.13
2019-01-09T15:56:18.905Z,65.67
2019-01-09T15:59:00.400Z,70.63
2019-01-09T16:01:41.360Z,67.37
2019-01-09T16:04:20.956Z,62.03
2019-01-09T16:10:00.823Z,57.23
2019-01-09T16:12:40.992Z,60.43
2019-01-09T16:15:19.616Z,62.10
2019-01-09T16:17:59.743Z,61.20
2019-01-09T16:20:39.999Z,61.73
2019-01-09T16:23:18.398Z,59.07
2019-01-09T16:25:59.865Z,59.57
2019-01-09T16:28:41.049Z,59.40
2019-01-09T16:37:19.295Z,57.37
2019-01-09T16:39:59.385Z,58.50
2019-01-09T16:42:40.127Z,57.23
2019-01-09T16:45:21.061Z,57.70
2019-01-09T16:48:02.159Z,57.47
2019-01-09T16:50:42.815Z,60.63
2019-01-09T16:53:23.751Z,58.43
2019-01-09T16:56:05.211Z,59.27
2019-01-09T16:58:46.675Z,59.73
2019-01-09T17:01:27.991Z,58.93
2019-01-09T17:07:07.573Z,62.30
2019-01-09T17:09:48.300Z,61.10
2019-01-09T17:12:29.469Z,61.80
2019-01-09T17:15:10.771Z,59.47
2019-01-09T17:17:51.857Z,59.77
2019-01-09T17:20:33.271Z,58.23
2019-01-09T17:23:14.143Z,59.40
2019-01-09T17:25:54.230Z,61.07
2019-01-09T17:28:34.980Z,59.33
2019-01-09T17:31:16.128Z,59.80
2019-01-09T17:33:57.080Z,58.03
2019-01-09T17:36:38.532Z,59.50
2019-01-09T17:39:19.617Z,59.30
2019-01-09T17:42:00.750Z,59.23
2019-01-09T17:44:42.178Z,59.37
2019-01-09T17:47:23.516Z,55.97
2019-01-09T17:50:04.311Z,58.73
2019-01-09T17:52:45.916Z,58.57
2019-01-09T17:55:27.360Z,60.90
2019-01-09T17:58:08.839Z,62.40
2019-01-09T18:00:48.428Z,63.47
2019-01-09T18:03:37.020Z,62.80
2019-01-09T18:06:16.568Z,61.07
2019-01-09T18:12:13.695Z,63.57
2019-01-09T18:14:55.185Z,63.63
2019-01-09T18:17:36.601Z,67.37
2019-01-09T18:20:18.081Z,67.13
2019-01-09T18:22:58.959Z,68.10
2019-01-09T18:25:40.234Z,68.23
2019-01-09T18:28:21.364Z,65.20
2019-01-09T18:31:03.646Z,65.37
2019-01-09T18:33:45.061Z,68.47
2019-01-09T18:36:26.497Z,67.83
2019-01-09T18:39:07.373Z,69.83
2019-01-09T18:42:09.650Z,72.83
2019-01-09T18:44:50.466Z,68.10
2019-01-09T18:47:32.160Z,71.60
2019-01-09T18:50:13.115Z,69.13
2019-01-09T18:52:54.464Z,65.43
2019-01-09T18:58:18.180Z,65.80
2019-01-09T19:01:07.881Z,69.30
2019-01-09T19:03:49.592Z,71.10
2019-01-09T19:06:35.471Z,70.20
2019-01-09T19:09:13.128Z,72.03
2019-01-09T19:11:54.424Z,75.37
2019-01-09T19:14:35.598Z,73.40
2019-01-09T19:17:16.989Z,72.47
2019-01-09T19:19:58.459Z,73.20
2019-01-09T19:22:39.978Z,74.23
2019-01-09T19:25:21.429Z,74.50
2019-01-09T19:28:02.615Z,74.97
2019-01-09T19:30:44.010Z,75.77
2019-01-09T19:33:25.513Z,76.30
2019-01-09T19:36:07.156Z,77.73
2019-01-09T19:38:48.447Z,79.27
2019-01-09T19:41:29.927Z,75.87
2019-01-09T19:44:11.288Z,80.47
2019-01-09T19:46:52.625Z,81.07
2019-01-09T19:49:33.679Z,77.67
2019-01-09T19:52:14.376Z,79.83
2019-01-09T19:54:55.059Z,82.37
2019-01-09T19:57:36.021Z,81.00
2019-01-09T20:00:16.988Z,81.67
2019-01-09T20:02:58.397Z,80.67
2019-01-09T20:05:39.363Z,84.97
2019-01-09T20:08:20.581Z,84.17
2019-01-09T20:11:01.562Z,83.97
2019-01-09T20:13:42.664Z,81.60
2019-01-09T20:16:23.802Z,82.70
2019-01-09T20:19:05.360Z,80.90
2019-01-09T20:21:46.389Z,83.90
2019-01-09T20:24:28.083Z,76.93
2019-01-09T20:27:08.764Z,84.97
2019-01-09T20:29:50.111Z,81.87
2019-01-09T20:32:31.743Z,76.57
2019-01-09T20:35:12.917Z,78.53
2019-01-09T20:46:47.899Z,80.73
2019-01-09T20:49:28.143Z,83.13
2019-01-09T20:52:07.674Z,82.87
2019-01-09T20:54:46.492Z,78.47
